
Distance (Route):
Temperature : -9.4°C
Humidity : 0%
Pressure : 0hPa| Receiver | Frames | First received | Last received |
|---|---|---|---|
| KE7DJD | 187 | 2026-09-04 18:06:09 | 2026-09-04 19:12:52 |
| Receiver | Date | Latitude | Longitude | Direction | Speed | Altitude | Climb | Temperature | Humidity | Pressure | Voltage | Killtimer | Uptime | BKT | XDATA |
|---|---|---|---|---|---|---|---|---|---|---|---|---|---|---|---|
| KE7DJD | 2026-09-04 19:12:52 | 41.82633 | -114.85852 | 36° | 113km/h | 6823m | -9.5m/s | -9.4°C | 0% | 0hPa | 0V | 00:00:00 | 00:00:00 | 00:00:00 | |
| KE7DJD | 2026-09-04 19:12:09 | 41.81642 | -114.86800 | 37° | 111km/h | 7236m | -9.5m/s | -13.1°C | 0% | 0hPa | 0V | 00:00:00 | 00:00:00 | 00:00:00 | |
| KE7DJD | 2026-09-04 19:11:46 | 41.81155 | -114.87289 | 39° | 108km/h | 7444m | -9.7m/s | -14.6°C | 0% | 0hPa | 0V | 00:00:00 | 00:00:00 | 00:00:00 | |
| KE7DJD | 2026-09-04 19:11:24 | 41.80682 | -114.87776 | 38° | 108km/h | 7654m | -9.9m/s | -16.3°C | 0% | 0hPa | 0V | 00:00:00 | 00:00:00 | 00:00:00 | |
| KE7DJD | 2026-09-04 19:11:03 | 41.80218 | -114.88242 | 37° | 111km/h | 7852m | -9.6m/s | -18.1°C | 0% | 0hPa | 0V | 00:00:00 | 00:00:00 | 00:00:00 | |
| KE7DJD | 2026-09-04 19:10:43 | 41.79733 | -114.88726 | 39° | 115km/h | 8044m | -8.8m/s | -19.6°C | 0% | 0hPa | 0V | 00:00:00 | 00:00:00 | 00:00:00 | |
| KE7DJD | 2026-09-04 19:10:22 | 41.79260 | -114.89216 | 39° | 120km/h | 8223m | -8.8m/s | -20.8°C | 0% | 0hPa | 0V | 00:00:00 | 00:00:00 | 00:00:00 | |
| KE7DJD | 2026-09-04 19:09:41 | 41.78190 | -114.90360 | 39° | 131km/h | 8589m | -8.7m/s | -23.3°C | 0% | 0hPa | 0V | 00:00:00 | 00:00:00 | 00:00:00 | |
| KE7DJD | 2026-09-04 19:09:20 | 41.77668 | -114.90912 | 40° | 133km/h | 8762m | -8.9m/s | -24.7°C | 0% | 0hPa | 0V | 00:00:00 | 00:00:00 | 00:00:00 | |
| KE7DJD | 2026-09-04 19:09:00 | 41.77118 | -114.91518 | 41° | 135km/h | 8941m | -8.6m/s | -25.8°C | 0% | 0hPa | 0V | 00:00:00 | 00:00:00 | 00:00:00 | |
| KE7DJD | 2026-09-04 19:08:39 | 41.76575 | -114.92115 | 40° | 139km/h | 9113m | -8.4m/s | -26.9°C | 0% | 0hPa | 0V | 00:00:00 | 00:00:00 | 00:00:00 | |
| KE7DJD | 2026-09-04 19:08:19 | 41.76013 | -114.92742 | 41° | 142km/h | 9289m | -8.3m/s | -28.1°C | 0% | 0hPa | 0V | 00:00:00 | 00:00:00 | 00:00:00 | |
| KE7DJD | 2026-09-04 19:07:58 | 41.75428 | -114.93440 | 45° | 148km/h | 9465m | -8.5m/s | -28.9°C | 0% | 0hPa | 0V | 00:00:00 | 00:00:00 | 00:00:00 | |
| KE7DJD | 2026-09-04 19:07:38 | 41.74880 | -114.94145 | 45° | 151km/h | 9636m | -8.7m/s | -30.4°C | 0% | 0hPa | 0V | 00:00:00 | 00:00:00 | 00:00:00 | |
| KE7DJD | 2026-09-04 19:07:17 | 41.74338 | -114.94866 | 47° | 148km/h | 9812m | -8.7m/s | -32.0°C | 0% | 0hPa | 0V | 00:00:00 | 00:00:00 | 00:00:00 | |
| KE7DJD | 2026-09-04 19:06:57 | 41.73782 | -114.95603 | 44° | 148km/h | 9998m | -9.5m/s | -33.3°C | 0% | 0hPa | 0V | 00:00:00 | 00:00:00 | 00:00:00 | |
| KE7DJD | 2026-09-04 19:06:36 | 41.73232 | -114.96287 | 45° | 146km/h | 10177m | -9.3m/s | -34.3°C | 0% | 0hPa | 0V | 00:00:00 | 00:00:00 | 00:00:00 | |
| KE7DJD | 2026-09-04 19:05:55 | 41.72151 | -114.97724 | 47° | 150km/h | 10564m | -9.6m/s | -36.5°C | 0% | 0hPa | 0V | 00:00:00 | 00:00:00 | 00:00:00 | |
| KE7DJD | 2026-09-04 19:05:35 | 41.71609 | -114.98508 | 49° | 153km/h | 10778m | -12.8m/s | -38.1°C | 0% | 0hPa | 0V | 00:00:00 | 00:00:00 | 00:00:00 | |
| KE7DJD | 2026-09-04 19:05:14 | 41.71085 | -114.99284 | 48° | 153km/h | 11031m | -12.4m/s | -39.9°C | 0% | 0hPa | 0V | 00:00:00 | 00:00:00 | 00:00:00 | |
| KE7DJD | 2026-09-04 19:04:54 | 41.70553 | -115.00085 | 50° | 148km/h | 11291m | -12.8m/s | -40.9°C | 0% | 0hPa | 0V | 00:00:00 | 00:00:00 | 00:00:00 | |
| KE7DJD | 2026-09-04 19:04:33 | 41.70053 | -115.00876 | 50° | 146km/h | 11560m | -12.4m/s | -41.9°C | 0% | 0hPa | 0V | 00:00:00 | 00:00:00 | 00:00:00 | |
| KE7DJD | 2026-09-04 19:04:12 | 41.69579 | -115.01607 | 50° | 142km/h | 11800m | -11.4m/s | -42.7°C | 0% | 0hPa | 0V | 00:00:00 | 00:00:00 | 00:00:00 | |
| KE7DJD | 2026-09-04 19:03:52 | 41.69099 | -115.02349 | 49° | 131km/h | 12051m | -11.8m/s | -43.9°C | 0% | 0hPa | 0V | 00:00:00 | 00:00:00 | 00:00:00 | |
| KE7DJD | 2026-09-04 19:03:31 | 41.68663 | -115.02994 | 48° | 128km/h | 12288m | -11.2m/s | -45.4°C | 0% | 0hPa | 0V | 00:00:00 | 00:00:00 | 00:00:00 | |
| KE7DJD | 2026-09-04 19:03:11 | 41.68153 | -115.03675 | 44° | 141km/h | 12513m | -10.2m/s | -45.6°C | 0% | 0hPa | 0V | 00:00:00 | 00:00:00 | 00:00:00 | |
| KE7DJD | 2026-09-04 19:02:50 | 41.67645 | -115.04344 | 47° | 137km/h | 12728m | -10.6m/s | -46.5°C | 0% | 0hPa | 0V | 00:00:00 | 00:00:00 | 00:00:00 | |
| KE7DJD | 2026-09-04 19:02:30 | 41.67154 | -115.04980 | 43° | 124km/h | 12951m | -10.8m/s | -46.0°C | 0% | 0hPa | 0V | 00:00:00 | 00:00:00 | 00:00:00 | |
| KE7DJD | 2026-09-04 19:02:09 | 41.66710 | -115.05562 | 48° | 120km/h | 13169m | -11.2m/s | -45.8°C | 0% | 0hPa | 0V | 00:00:00 | 00:00:00 | 00:00:00 | |
| KE7DJD | 2026-09-04 19:01:49 | 41.66277 | -115.06159 | 45° | 115km/h | 13403m | -11.7m/s | -46.5°C | 0% | 0hPa | 0V | 00:00:00 | 00:00:00 | 00:00:00 | |
| KE7DJD | 2026-09-04 19:01:28 | 41.65860 | -115.06699 | 46° | 117km/h | 13639m | -11.8m/s | -47.7°C | 0% | 0hPa | 0V | 00:00:00 | 00:00:00 | 00:00:00 | |
| KE7DJD | 2026-09-04 19:01:08 | 41.65438 | -115.07268 | 48° | 111km/h | 13879m | -10.9m/s | -47.9°C | 0% | 0hPa | 0V | 00:00:00 | 00:00:00 | 00:00:00 | |
| KE7DJD | 2026-09-04 19:00:47 | 41.65050 | -115.07783 | 46° | 108km/h | 14105m | -11.2m/s | -49.0°C | 0% | 0hPa | 0V | 00:00:00 | 00:00:00 | 00:00:00 | |
| KE7DJD | 2026-09-04 19:00:27 | 41.64680 | -115.08320 | 47° | 99km/h | 14354m | -12.4m/s | -49.8°C | 0% | 0hPa | 0V | 00:00:00 | 00:00:00 | 00:00:00 | |
| KE7DJD | 2026-09-04 19:00:06 | 41.64326 | -115.08756 | 40° | 93km/h | 14605m | -12.8m/s | -51.7°C | 0% | 0hPa | 0V | 00:00:00 | 00:00:00 | 00:00:00 | |
| KE7DJD | 2026-09-04 18:59:46 | 41.63933 | -115.09189 | 40° | 97km/h | 14870m | -12.6m/s | -52.9°C | 0% | 0hPa | 0V | 00:00:00 | 00:00:00 | 00:00:00 | |
| KE7DJD | 2026-09-04 18:59:25 | 41.63499 | -115.09668 | 44° | 113km/h | 15140m | -13.0m/s | -52.2°C | 0% | 0hPa | 0V | 00:00:00 | 00:00:00 | 00:00:00 | |
| KE7DJD | 2026-09-04 18:59:03 | 41.63110 | -115.10257 | 55° | 100km/h | 15411m | -13.2m/s | -51.8°C | 0% | 0hPa | 0V | 00:00:00 | 00:00:00 | 00:00:00 | |
| KE7DJD | 2026-09-04 18:58:43 | 41.62817 | -115.10777 | 52° | 91km/h | 15692m | -13.4m/s | -51.2°C | 0% | 0hPa | 0V | 00:00:00 | 00:00:00 | 00:00:00 | |
| KE7DJD | 2026-09-04 18:58:22 | 41.62587 | -115.11115 | 30° | 40km/h | 15979m | -14.0m/s | -46.2°C | 0% | 0hPa | 0V | 00:00:00 | 00:00:00 | 00:00:00 | |
| KE7DJD | 2026-09-04 18:58:00 | 41.62392 | -115.11192 | 13° | 40km/h | 16280m | -15.0m/s | -47.8°C | 0% | 0hPa | 0V | 00:00:00 | 00:00:00 | 00:00:00 | |
| KE7DJD | 2026-09-04 18:57:40 | 41.62192 | -115.11253 | 10° | 40km/h | 16573m | -14.1m/s | -50.4°C | 0% | 0hPa | 0V | 00:00:00 | 00:00:00 | 00:00:00 | |
| KE7DJD | 2026-09-04 18:57:19 | 41.61956 | -115.11292 | 12° | 51km/h | 16888m | -14.6m/s | -53.2°C | 0% | 0hPa | 0V | 00:00:00 | 00:00:00 | 00:00:00 | |
| KE7DJD | 2026-09-04 18:56:59 | 41.61661 | -115.11373 | 7° | 64km/h | 17204m | -15.0m/s | -54.1°C | 0% | 0hPa | 0V | 00:00:00 | 00:00:00 | 00:00:00 | |
| KE7DJD | 2026-09-04 18:56:38 | 41.61300 | -115.11512 | 28° | 78km/h | 17503m | -14.8m/s | -53.7°C | 0% | 0hPa | 0V | 00:00:00 | 00:00:00 | 00:00:00 | |
| KE7DJD | 2026-09-04 18:56:18 | 41.60984 | -115.11800 | 42° | 71km/h | 17807m | -16.0m/s | -52.0°C | 0% | 0hPa | 0V | 00:00:00 | 00:00:00 | 00:00:00 | |
| KE7DJD | 2026-09-04 18:55:58 | 41.60774 | -115.12082 | 52° | 42km/h | 18149m | -16.8m/s | -49.4°C | 0% | 0hPa | 0V | 00:00:00 | 00:00:00 | 00:00:00 | |
| KE7DJD | 2026-09-04 18:55:37 | 41.60694 | -115.12212 | 26° | 20km/h | 18501m | -17.4m/s | -47.7°C | 0% | 0hPa | 0V | 00:00:00 | 00:00:00 | 00:00:00 | |
| KE7DJD | 2026-09-04 18:55:17 | 41.60564 | -115.12231 | 2° | 24km/h | 18877m | -17.6m/s | -50.4°C | 0% | 0hPa | 0V | 00:00:00 | 00:00:00 | 00:00:00 | |
| KE7DJD | 2026-09-04 18:54:56 | 41.60438 | -115.12280 | 38° | 29km/h | 19238m | -18.6m/s | -51.3°C | 0% | 0hPa | 0V | 00:00:00 | 00:00:00 | 00:00:00 | |
| KE7DJD | 2026-09-04 18:54:36 | 41.60380 | -115.12342 | 330° | 11km/h | 19635m | -19.6m/s | -50.6°C | 0% | 0hPa | 0V | 00:00:00 | 00:00:00 | 00:00:00 | |
| KE7DJD | 2026-09-04 18:54:15 | 41.60284 | -115.12265 | 345° | 27km/h | 20024m | -19.8m/s | -51.0°C | 0% | 0hPa | 0V | 00:00:00 | 00:00:00 | 00:00:00 | |
| KE7DJD | 2026-09-04 18:53:55 | 41.60196 | -115.12225 | 255° | 4km/h | 20443m | -19.6m/s | -48.9°C | 0% | 0hPa | 0V | 00:00:00 | 00:00:00 | 00:00:00 | |
| KE7DJD | 2026-09-04 18:53:34 | 41.60193 | -115.12108 | 310° | 22km/h | 20858m | -21.3m/s | -49.7°C | 0% | 0hPa | 0V | 00:00:00 | 00:00:00 | 00:00:00 | |
| KE7DJD | 2026-09-04 18:53:14 | 41.60116 | -115.11957 | 314° | 31km/h | 21295m | -20.6m/s | -49.8°C | 0% | 0hPa | 0V | 00:00:00 | 00:00:00 | 00:00:00 | |
| KE7DJD | 2026-09-04 18:52:53 | 41.60008 | -115.11901 | 318° | 18km/h | 21745m | -21.7m/s | -49.9°C | 0% | 0hPa | 0V | 00:00:00 | 00:00:00 | 00:00:00 | |
| KE7DJD | 2026-09-04 18:52:32 | 41.59909 | -115.11840 | 360° | 20km/h | 22184m | -22.2m/s | -48.3°C | 0% | 0hPa | 0V | 00:00:00 | 00:00:00 | 00:00:00 | |
| KE7DJD | 2026-09-04 18:52:12 | 41.59847 | -115.11836 | 226° | 7km/h | 22665m | -23.3m/s | -47.6°C | 0% | 0hPa | 0V | 00:00:00 | 00:00:00 | 00:00:00 | |
| KE7DJD | 2026-09-04 18:51:51 | 41.59861 | -115.11727 | 248° | 18km/h | 23142m | -24.3m/s | -47.5°C | 0% | 0hPa | 0V | 00:00:00 | 00:00:00 | 00:00:00 | |
| KE7DJD | 2026-09-04 18:51:31 | 41.59886 | -115.11529 | 262° | 37km/h | 23700m | -26.0m/s | -46.7°C | 0% | 0hPa | 0V | 00:00:00 | 00:00:00 | 00:00:00 | |
| KE7DJD | 2026-09-04 18:51:10 | 41.59944 | -115.11308 | 252° | 42km/h | 24228m | -26.7m/s | -47.2°C | 0% | 0hPa | 0V | 00:00:00 | 00:00:00 | 00:00:00 | |
| KE7DJD | 2026-09-04 18:50:50 | 41.59906 | -115.11034 | 292° | 26km/h | 24793m | -27.0m/s | -44.7°C | 0% | 0hPa | 0V | 00:00:00 | 00:00:00 | 00:00:00 | |
| KE7DJD | 2026-09-04 18:50:29 | 41.59816 | -115.10901 | 323° | 22km/h | 25342m | -28.0m/s | -42.6°C | 0% | 0hPa | 0V | 00:00:00 | 00:00:00 | 00:00:00 | |
| KE7DJD | 2026-09-04 18:50:09 | 41.59773 | -115.10806 | 277° | 22km/h | 25956m | -30.1m/s | -41.7°C | 0% | 0hPa | 0V | 00:00:00 | 00:00:00 | 00:00:00 | |
| KE7DJD | 2026-09-04 18:49:48 | 41.59746 | -115.10728 | 302° | 20km/h | 26588m | -30.8m/s | -42.1°C | 0% | 0hPa | 0V | 00:00:00 | 00:00:00 | 00:00:00 | |
| KE7DJD | 2026-09-04 18:49:28 | 41.59690 | -115.10684 | 28° | 9km/h | 27239m | -33.5m/s | -40.2°C | 0% | 0hPa | 0V | 00:00:00 | 00:00:00 | 00:00:00 | |
| KE7DJD | 2026-09-04 18:49:07 | 41.59688 | -115.10651 | 262° | 18km/h | 27937m | -35.4m/s | -40.4°C | 0% | 0hPa | 0V | 00:00:00 | 00:00:00 | 00:00:00 | |
| KE7DJD | 2026-09-04 18:48:26 | 41.59687 | -115.10458 | 299° | 15km/h | 29253m | -26.8m/s | -39.9°C | 0% | 0hPa | 0V | 00:00:00 | 00:00:00 | 00:00:00 | |
| KE7DJD | 2026-09-04 18:48:06 | 41.59617 | -115.10382 | 282° | 4km/h | 29798m | -26.1m/s | -38.1°C | 0% | 0hPa | 0V | 00:00:00 | 00:00:00 | 00:00:00 | |
| KE7DJD | 2026-09-04 18:47:44 | 41.59621 | -115.10364 | 7° | 9km/h | 30396m | -22.9m/s | -34.9°C | 0% | 0hPa | 0V | 00:00:00 | 00:00:00 | 00:00:00 | |
| KE7DJD | 2026-09-04 18:47:24 | 41.59568 | -115.10218 | 329° | 20km/h | 30901m | -21.6m/s | -34.5°C | 0% | 0hPa | 0V | 00:00:00 | 00:00:00 | 00:00:00 | |
| KE7DJD | 2026-09-04 18:47:04 | 41.59549 | -115.10114 | 284° | 33km/h | 31480m | -28.6m/s | -32.8°C | 0% | 0hPa | 0V | 00:00:00 | 00:00:00 | 00:00:00 | |
| KE7DJD | 2026-09-04 18:46:43 | 41.59459 | -115.09982 | 276° | 29km/h | 32077m | -22.2m/s | -32.0°C | 0% | 0hPa | 0V | 00:00:00 | 00:00:00 | 00:00:00 | |
| KE7DJD | 2026-09-04 18:46:23 | 41.59347 | -115.09848 | 13° | 58km/h | 32586m | 3.4m/s | -32.4°C | 0% | 0hPa | 0V | 00:00:00 | 00:00:00 | 00:00:00 | |
| KE7DJD | 2026-09-04 18:46:02 | 41.59217 | -115.09765 | 339° | 40km/h | 32467m | 5.7m/s | -32.5°C | 0% | 0hPa | 0V | 00:00:00 | 00:00:00 | 00:00:00 | |
| KE7DJD | 2026-09-04 18:45:42 | 41.59138 | -115.09643 | 259° | 44km/h | 32338m | 5.0m/s | -32.4°C | 0% | 0hPa | 0V | 00:00:00 | 00:00:00 | 00:00:00 | |
| KE7DJD | 2026-09-04 18:45:20 | 41.59081 | -115.09494 | 284° | 29km/h | 32217m | 6.0m/s | -31.8°C | 0% | 0hPa | 0V | 00:00:00 | 00:00:00 | 00:00:00 | |
| KE7DJD | 2026-09-04 18:44:59 | 41.59028 | -115.09351 | 312° | 16km/h | 32085m | 3.5m/s | -32.8°C | 0% | 0hPa | 0V | 00:00:00 | 00:00:00 | 00:00:00 | |
| KE7DJD | 2026-09-04 18:44:38 | 41.58967 | -115.09196 | 291° | 38km/h | 31965m | 8.0m/s | -33.1°C | 0% | 0hPa | 0V | 00:00:00 | 00:00:00 | 00:00:00 | |
| KE7DJD | 2026-09-04 18:44:18 | 41.58871 | -115.09020 | 297° | 27km/h | 31840m | 5.8m/s | -33.3°C | 0% | 0hPa | 0V | 00:00:00 | 00:00:00 | 00:00:00 | |
| KE7DJD | 2026-09-04 18:43:57 | 41.58729 | -115.08893 | 12° | 31km/h | 31718m | 8.4m/s | -33.4°C | 0% | 0hPa | 0V | 00:00:00 | 00:00:00 | 00:00:00 | |
| KE7DJD | 2026-09-04 18:43:37 | 41.58584 | -115.08739 | 322° | 22km/h | 31601m | 4.3m/s | -32.8°C | 0% | 0hPa | 0V | 00:00:00 | 00:00:00 | 00:00:00 | |
| KE7DJD | 2026-09-04 18:43:16 | 41.58524 | -115.08561 | 278° | 33km/h | 31480m | 7.5m/s | -33.1°C | 0% | 0hPa | 0V | 00:00:00 | 00:00:00 | 00:00:00 | |
| KE7DJD | 2026-09-04 18:42:56 | 41.58522 | -115.08410 | 2° | 7km/h | 31355m | 7.9m/s | -33.7°C | 0% | 0hPa | 0V | 00:00:00 | 00:00:00 | 00:00:00 | |
| KE7DJD | 2026-09-04 18:42:35 | 41.58496 | -115.08327 | 309° | 15km/h | 31236m | 5.6m/s | -34.2°C | 0% | 0hPa | 0V | 00:00:00 | 00:00:00 | 00:00:00 | |
| KE7DJD | 2026-09-04 18:42:13 | 41.58457 | -115.08144 | 269° | 31km/h | 31108m | 5.8m/s | -34.7°C | 0% | 0hPa | 0V | 00:00:00 | 00:00:00 | 00:00:00 | |
| KE7DJD | 2026-09-04 18:41:53 | 41.58392 | -115.07995 | 292° | 24km/h | 30978m | 7.2m/s | -34.9°C | 0% | 0hPa | 0V | 00:00:00 | 00:00:00 | 00:00:00 | |
| KE7DJD | 2026-09-04 18:41:32 | 41.58365 | -115.07834 | 297° | 27km/h | 30853m | 7.1m/s | -34.8°C | 0% | 0hPa | 0V | 00:00:00 | 00:00:00 | 00:00:00 | |
| KE7DJD | 2026-09-04 18:41:11 | 41.58292 | -115.07683 | 11° | 29km/h | 30728m | 4.6m/s | -35.1°C | 0% | 0hPa | 0V | 00:00:00 | 00:00:00 | 00:00:00 | |
| KE7DJD | 2026-09-04 18:40:51 | 41.58220 | -115.07510 | 239° | 42km/h | 30602m | 7.5m/s | -35.8°C | 0% | 0hPa | 0V | 00:00:00 | 00:00:00 | 00:00:00 | |
| KE7DJD | 2026-09-04 18:40:29 | 41.58248 | -115.07387 | 215° | 18km/h | 30471m | 7.2m/s | -35.5°C | 0% | 0hPa | 0V | 00:00:00 | 00:00:00 | 00:00:00 | |
| KE7DJD | 2026-09-04 18:40:09 | 41.58303 | -115.07347 | 207° | 22km/h | 30338m | 5.6m/s | -35.3°C | 0% | 0hPa | 0V | 00:00:00 | 00:00:00 | 00:00:00 | |
| KE7DJD | 2026-09-04 18:39:28 | 41.58319 | -115.07324 | 286° | 16km/h | 30098m | 7.4m/s | -36.8°C | 0% | 0hPa | 0V | 00:00:00 | 00:00:00 | 00:00:00 | |
| KE7DJD | 2026-09-04 18:39:08 | 41.58284 | -115.07222 | 289° | 18km/h | 29970m | 6.5m/s | -37.3°C | 0% | 0hPa | 0V | 00:00:00 | 00:00:00 | 00:00:00 | |
| KE7DJD | 2026-09-04 18:38:47 | 41.58269 | -115.07163 | 209° | 15km/h | 29855m | 5.7m/s | -39.4°C | 0% | 0hPa | 0V | 00:00:00 | 00:00:00 | 00:00:00 | |
| KE7DJD | 2026-09-04 18:38:27 | 41.58225 | -115.07096 | 337° | 31km/h | 29730m | 5.8m/s | -39.8°C | 0% | 0hPa | 0V | 00:00:00 | 00:00:00 | 00:00:00 | |
| KE7DJD | 2026-09-04 18:38:06 | 41.58130 | -115.06996 | 269° | 18km/h | 29610m | 4.5m/s | -39.9°C | 0% | 0hPa | 0V | 00:00:00 | 00:00:00 | 00:00:00 | |
| KE7DJD | 2026-09-04 18:37:46 | 41.58047 | -115.06863 | 336° | 38km/h | 29495m | 4.1m/s | -40.1°C | 0% | 0hPa | 0V | 00:00:00 | 00:00:00 | 00:00:00 | |
| KE7DJD | 2026-09-04 18:37:25 | 41.57999 | -115.06761 | 265° | 20km/h | 29378m | 4.2m/s | -40.2°C | 0% | 0hPa | 0V | 00:00:00 | 00:00:00 | 00:00:00 | |
| KE7DJD | 2026-09-04 18:37:05 | 41.57952 | -115.06633 | 307° | 27km/h | 29253m | 6.5m/s | -39.9°C | 0% | 0hPa | 0V | 00:00:00 | 00:00:00 | 00:00:00 | |
| KE7DJD | 2026-09-04 18:36:43 | 41.57957 | -115.06541 | 323° | 13km/h | 29128m | 5.3m/s | -39.6°C | 0% | 0hPa | 0V | 00:00:00 | 00:00:00 | 00:00:00 | |
| KE7DJD | 2026-09-04 18:36:22 | 41.58004 | -115.06520 | 178° | 33km/h | 29002m | 6.5m/s | -40.1°C | 0% | 0hPa | 0V | 00:00:00 | 00:00:00 | 00:00:00 | |
| KE7DJD | 2026-09-04 18:36:02 | 41.58044 | -115.06431 | 293° | 20km/h | 28877m | 6.2m/s | -39.5°C | 0% | 0hPa | 0V | 00:00:00 | 00:00:00 | 00:00:00 | |
| KE7DJD | 2026-09-04 18:35:41 | 41.58071 | -115.06287 | 281° | 20km/h | 28752m | 5.2m/s | -39.1°C | 0% | 0hPa | 0V | 00:00:00 | 00:00:00 | 00:00:00 | |
| KE7DJD | 2026-09-04 18:35:20 | 41.58110 | -115.06185 | 233° | 7km/h | 28636m | 6.1m/s | -39.1°C | 0% | 0hPa | 0V | 00:00:00 | 00:00:00 | 00:00:00 | |
| KE7DJD | 2026-09-04 18:35:00 | 41.58119 | -115.06119 | 169° | 11km/h | 28511m | 4.8m/s | -39.2°C | 0% | 0hPa | 0V | 00:00:00 | 00:00:00 | 00:00:00 | |
| KE7DJD | 2026-09-04 18:34:39 | 41.58130 | -115.06045 | 185° | 7km/h | 28396m | 7.0m/s | -39.7°C | 0% | 0hPa | 0V | 00:00:00 | 00:00:00 | 00:00:00 | |
| KE7DJD | 2026-09-04 18:34:19 | 41.58112 | -115.06051 | 15° | 22km/h | 28275m | 4.9m/s | -40.2°C | 0% | 0hPa | 0V | 00:00:00 | 00:00:00 | 00:00:00 | |
| KE7DJD | 2026-09-04 18:33:58 | 41.58088 | -115.06027 | 322° | 27km/h | 28158m | 6.3m/s | -40.0°C | 0% | 0hPa | 0V | 00:00:00 | 00:00:00 | 00:00:00 | |
| KE7DJD | 2026-09-04 18:33:38 | 41.58088 | -115.05964 | 187° | 26km/h | 28038m | 4.4m/s | -40.1°C | 0% | 0hPa | 0V | 00:00:00 | 00:00:00 | 00:00:00 | |
| KE7DJD | 2026-09-04 18:33:16 | 41.58147 | -115.05870 | 171° | 24km/h | 27914m | 4.8m/s | -40.3°C | 0% | 0hPa | 0V | 00:00:00 | 00:00:00 | 00:00:00 | |
| KE7DJD | 2026-09-04 18:32:56 | 41.58167 | -115.05806 | 260° | 4km/h | 27797m | 5.6m/s | -40.2°C | 0% | 0hPa | 0V | 00:00:00 | 00:00:00 | 00:00:00 | |
| KE7DJD | 2026-09-04 18:32:36 | 41.58153 | -115.05804 | 16° | 13km/h | 27672m | 6.4m/s | -39.9°C | 0% | 0hPa | 0V | 00:00:00 | 00:00:00 | 00:00:00 | |
| KE7DJD | 2026-09-04 18:32:15 | 41.58135 | -115.05797 | 102° | 16km/h | 27548m | 4.0m/s | -39.6°C | 0% | 0hPa | 0V | 00:00:00 | 00:00:00 | 00:00:00 | |
| KE7DJD | 2026-09-04 18:31:55 | 41.58147 | -115.05784 | 221° | 4km/h | 27421m | 5.8m/s | -39.9°C | 0% | 0hPa | 0V | 00:00:00 | 00:00:00 | 00:00:00 | |
| KE7DJD | 2026-09-04 18:31:34 | 41.58090 | -115.05800 | 38° | 20km/h | 27295m | 6.4m/s | -40.4°C | 0% | 0hPa | 0V | 00:00:00 | 00:00:00 | 00:00:00 | |
| KE7DJD | 2026-09-04 18:31:13 | 41.57996 | -115.05829 | 10° | 27km/h | 27171m | 4.7m/s | -40.2°C | 0% | 0hPa | 0V | 00:00:00 | 00:00:00 | 00:00:00 | |
| KE7DJD | 2026-09-04 18:30:52 | 41.57898 | -115.05807 | 337° | 31km/h | 27046m | 5.9m/s | -40.8°C | 0% | 0hPa | 0V | 00:00:00 | 00:00:00 | 00:00:00 | |
| KE7DJD | 2026-09-04 18:30:31 | 41.57825 | -115.05705 | 327° | 42km/h | 26925m | 3.1m/s | -41.2°C | 0% | 0hPa | 0V | 00:00:00 | 00:00:00 | 00:00:00 | |
| KE7DJD | 2026-09-04 18:30:10 | 41.57784 | -115.05649 | 346° | 27km/h | 26808m | 7.0m/s | -41.8°C | 0% | 0hPa | 0V | 00:00:00 | 00:00:00 | 00:00:00 | |
| KE7DJD | 2026-09-04 18:29:50 | 41.57692 | -115.05537 | 345° | 27km/h | 26688m | 5.6m/s | -41.9°C | 0% | 0hPa | 0V | 00:00:00 | 00:00:00 | 00:00:00 | |
| KE7DJD | 2026-09-04 18:29:09 | 41.57575 | -115.05271 | 252° | 18km/h | 26457m | 5.3m/s | -41.4°C | 0% | 0hPa | 0V | 00:00:00 | 00:00:00 | 00:00:00 | |
| KE7DJD | 2026-09-04 18:28:48 | 41.57540 | -115.05181 | 288° | 4km/h | 26344m | 6.3m/s | -41.1°C | 0% | 0hPa | 0V | 00:00:00 | 00:00:00 | 00:00:00 | |
| KE7DJD | 2026-09-04 18:28:28 | 41.57481 | -115.05145 | 8° | 20km/h | 26227m | 5.4m/s | -41.2°C | 0% | 0hPa | 0V | 00:00:00 | 00:00:00 | 00:00:00 | |
| KE7DJD | 2026-09-04 18:28:07 | 41.57433 | -115.05078 | 331° | 9km/h | 26113m | 5.2m/s | -41.6°C | 0% | 0hPa | 0V | 00:00:00 | 00:00:00 | 00:00:00 | |
| KE7DJD | 2026-09-04 18:27:47 | 41.57385 | -115.04938 | 10° | 9km/h | 25993m | 3.9m/s | -41.7°C | 0% | 0hPa | 0V | 00:00:00 | 00:00:00 | 00:00:00 | |
| KE7DJD | 2026-09-04 18:27:26 | 41.57332 | -115.04839 | 325° | 24km/h | 25880m | 5.4m/s | -41.8°C | 0% | 0hPa | 0V | 00:00:00 | 00:00:00 | 00:00:00 | |
| KE7DJD | 2026-09-04 18:27:06 | 41.57221 | -115.04795 | 338° | 29km/h | 25760m | 5.1m/s | -41.8°C | 0% | 0hPa | 0V | 00:00:00 | 00:00:00 | 00:00:00 | |
| KE7DJD | 2026-09-04 18:26:45 | 41.57171 | -115.04690 | 283° | 15km/h | 25643m | 6.6m/s | -41.7°C | 0% | 0hPa | 0V | 00:00:00 | 00:00:00 | 00:00:00 | |
| KE7DJD | 2026-09-04 18:26:25 | 41.57163 | -115.04540 | 267° | 22km/h | 25521m | 6.2m/s | -41.9°C | 0% | 0hPa | 0V | 00:00:00 | 00:00:00 | 00:00:00 | |
| KE7DJD | 2026-09-04 18:26:04 | 41.57104 | -115.04420 | 353° | 20km/h | 25398m | 6.8m/s | -42.7°C | 0% | 0hPa | 0V | 00:00:00 | 00:00:00 | 00:00:00 | |
| KE7DJD | 2026-09-04 18:25:43 | 41.56997 | -115.04329 | 326° | 24km/h | 25285m | 5.8m/s | -43.5°C | 0% | 0hPa | 0V | 00:00:00 | 00:00:00 | 00:00:00 | |
| KE7DJD | 2026-09-04 18:25:23 | 41.56914 | -115.04204 | 313° | 33km/h | 25161m | 6.1m/s | -44.4°C | 0% | 0hPa | 0V | 00:00:00 | 00:00:00 | 00:00:00 | |
| KE7DJD | 2026-09-04 18:25:02 | 41.56800 | -115.04034 | 287° | 37km/h | 25048m | 5.4m/s | -44.6°C | 0% | 0hPa | 0V | 00:00:00 | 00:00:00 | 00:00:00 | |
| KE7DJD | 2026-09-04 18:24:42 | 41.56734 | -115.03862 | 291° | 33km/h | 24933m | 5.7m/s | -45.2°C | 0% | 0hPa | 0V | 00:00:00 | 00:00:00 | 00:00:00 | |
| KE7DJD | 2026-09-04 18:24:21 | 41.56651 | -115.03677 | 295° | 58km/h | 24822m | 5.2m/s | -46.3°C | 0% | 0hPa | 0V | 00:00:00 | 00:00:00 | 00:00:00 | |
| KE7DJD | 2026-09-04 18:24:01 | 41.56593 | -115.03422 | 275° | 37km/h | 24710m | 4.7m/s | -46.9°C | 0% | 0hPa | 0V | 00:00:00 | 00:00:00 | 00:00:00 | |
| KE7DJD | 2026-09-04 18:23:41 | 41.56586 | -115.03188 | 294° | 46km/h | 24603m | 5.8m/s | -47.4°C | 0% | 0hPa | 0V | 00:00:00 | 00:00:00 | 00:00:00 | |
| KE7DJD | 2026-09-04 18:23:20 | 41.56551 | -115.02856 | 270° | 46km/h | 24491m | 5.5m/s | -47.9°C | 0% | 0hPa | 0V | 00:00:00 | 00:00:00 | 00:00:00 | |
| KE7DJD | 2026-09-04 18:22:59 | 41.56592 | -115.02565 | 262° | 38km/h | 24384m | 4.7m/s | -47.4°C | 0% | 0hPa | 0V | 00:00:00 | 00:00:00 | 00:00:00 | |
| KE7DJD | 2026-09-04 18:22:39 | 41.56671 | -115.02276 | 232° | 47km/h | 24268m | 6.9m/s | -46.8°C | 0% | 0hPa | 0V | 00:00:00 | 00:00:00 | 00:00:00 | |
| KE7DJD | 2026-09-04 18:22:18 | 41.56783 | -115.02029 | 245° | 44km/h | 24152m | 6.5m/s | -46.5°C | 0% | 0hPa | 0V | 00:00:00 | 00:00:00 | 00:00:00 | |
| KE7DJD | 2026-09-04 18:21:57 | 41.56872 | -115.01853 | 246° | 24km/h | 24031m | 6.6m/s | -46.6°C | 0% | 0hPa | 0V | 00:00:00 | 00:00:00 | 00:00:00 | |
| KE7DJD | 2026-09-04 18:21:36 | 41.56889 | -115.01723 | 281° | 20km/h | 23912m | 4.4m/s | -46.9°C | 0% | 0hPa | 0V | 00:00:00 | 00:00:00 | 00:00:00 | |
| KE7DJD | 2026-09-04 18:21:15 | 41.56906 | -115.01514 | 261° | 33km/h | 23791m | 6.3m/s | -46.9°C | 0% | 0hPa | 0V | 00:00:00 | 00:00:00 | 00:00:00 | |
| KE7DJD | 2026-09-04 18:20:54 | 41.56922 | -115.01280 | 264° | 33km/h | 23681m | 4.1m/s | -47.2°C | 0% | 0hPa | 0V | 00:00:00 | 00:00:00 | 00:00:00 | |
| KE7DJD | 2026-09-04 18:20:34 | 41.56934 | -115.01092 | 285° | 29km/h | 23567m | 4.8m/s | -46.9°C | 0% | 0hPa | 0V | 00:00:00 | 00:00:00 | 00:00:00 | |
| KE7DJD | 2026-09-04 18:20:13 | 41.56958 | -115.00906 | 304° | 20km/h | 23454m | 3.8m/s | -46.8°C | 0% | 0hPa | 0V | 00:00:00 | 00:00:00 | 00:00:00 | |
| KE7DJD | 2026-09-04 18:19:52 | 41.56963 | -115.00742 | 272° | 29km/h | 23342m | 6.2m/s | -47.9°C | 0% | 0hPa | 0V | 00:00:00 | 00:00:00 | 00:00:00 | |
| KE7DJD | 2026-09-04 18:19:32 | 41.56991 | -115.00600 | 229° | 22km/h | 23230m | 5.1m/s | -47.4°C | 0% | 0hPa | 0V | 00:00:00 | 00:00:00 | 00:00:00 | |
| KE7DJD | 2026-09-04 18:19:11 | 41.57018 | -115.00540 | 302° | 11km/h | 23119m | 6.9m/s | -47.2°C | 0% | 0hPa | 0V | 00:00:00 | 00:00:00 | 00:00:00 | |
| KE7DJD | 2026-09-04 18:18:51 | 41.57014 | -115.00472 | 285° | 13km/h | 23003m | 5.0m/s | -47.0°C | 0% | 0hPa | 0V | 00:00:00 | 00:00:00 | 00:00:00 | |
| KE7DJD | 2026-09-04 18:18:30 | 41.57035 | -115.00379 | 278° | 15km/h | 22893m | 5.2m/s | -46.8°C | 0% | 0hPa | 0V | 00:00:00 | 00:00:00 | 00:00:00 | |
| KE7DJD | 2026-09-04 18:18:10 | 41.57049 | -115.00283 | 265° | 15km/h | 22779m | 5.8m/s | -46.6°C | 0% | 0hPa | 0V | 00:00:00 | 00:00:00 | 00:00:00 | |
| KE7DJD | 2026-09-04 18:17:49 | 41.57066 | -115.00264 | 161° | 5km/h | 22666m | 4.4m/s | -47.2°C | 0% | 0hPa | 0V | 00:00:00 | 00:00:00 | 00:00:00 | |
| KE7DJD | 2026-09-04 18:17:29 | 41.57070 | -115.00276 | 72° | 9km/h | 22552m | 6.5m/s | -47.2°C | 0% | 0hPa | 0V | 00:00:00 | 00:00:00 | 00:00:00 | |
| KE7DJD | 2026-09-04 18:17:08 | 41.57005 | -115.00315 | 21° | 27km/h | 22441m | 4.8m/s | -47.6°C | 0% | 0hPa | 0V | 00:00:00 | 00:00:00 | 00:00:00 | |
| KE7DJD | 2026-09-04 18:16:48 | 41.56912 | -115.00334 | 355° | 11km/h | 22328m | 6.7m/s | -48.4°C | 0% | 0hPa | 0V | 00:00:00 | 00:00:00 | 00:00:00 | |
| KE7DJD | 2026-09-04 18:16:27 | 41.56819 | -115.00375 | 319° | 9km/h | 22219m | 4.6m/s | -48.3°C | 0% | 0hPa | 0V | 00:00:00 | 00:00:00 | 00:00:00 | |
| KE7DJD | 2026-09-04 18:15:46 | 41.56610 | -115.00304 | 340° | 24km/h | 22004m | 4.2m/s | -49.0°C | 0% | 0hPa | 0V | 00:00:00 | 00:00:00 | 00:00:00 | |
| KE7DJD | 2026-09-04 18:15:26 | 41.56506 | -115.00192 | 314° | 27km/h | 21896m | 4.1m/s | -49.8°C | 0% | 0hPa | 0V | 00:00:00 | 00:00:00 | 00:00:00 | |
| KE7DJD | 2026-09-04 18:15:04 | 41.56444 | -115.00055 | 325° | 16km/h | 21790m | 4.7m/s | -49.9°C | 0% | 0hPa | 0V | 00:00:00 | 00:00:00 | 00:00:00 | |
| KE7DJD | 2026-09-04 18:14:43 | 41.56383 | -114.99964 | 334° | 29km/h | 21681m | 4.6m/s | -49.8°C | 0% | 0hPa | 0V | 00:00:00 | 00:00:00 | 00:00:00 | |
| KE7DJD | 2026-09-04 18:14:23 | 41.56288 | -114.99930 | 15° | 29km/h | 21579m | 5.0m/s | -50.1°C | 0% | 0hPa | 0V | 00:00:00 | 00:00:00 | 00:00:00 | |
| KE7DJD | 2026-09-04 18:13:41 | 41.56024 | -114.99734 | 319° | 33km/h | 21376m | 4.9m/s | -49.9°C | 0% | 0hPa | 0V | 00:00:00 | 00:00:00 | 00:00:00 | |
| KE7DJD | 2026-09-04 18:13:21 | 41.55926 | -114.99553 | 306° | 29km/h | 21274m | 5.2m/s | -49.3°C | 0% | 0hPa | 0V | 00:00:00 | 00:00:00 | 00:00:00 | |
| KE7DJD | 2026-09-04 18:13:00 | 41.55856 | -114.99360 | 305° | 24km/h | 21170m | 6.0m/s | -49.0°C | 0% | 0hPa | 0V | 00:00:00 | 00:00:00 | 00:00:00 | |
| KE7DJD | 2026-09-04 18:12:39 | 41.55814 | -114.99214 | 312° | 9km/h | 21065m | 3.2m/s | -49.4°C | 0% | 0hPa | 0V | 00:00:00 | 00:00:00 | 00:00:00 | |
| KE7DJD | 2026-09-04 18:12:18 | 41.55748 | -114.99118 | 305° | 27km/h | 20964m | 5.9m/s | -50.1°C | 0% | 0hPa | 0V | 00:00:00 | 00:00:00 | 00:00:00 | |
| KE7DJD | 2026-09-04 18:11:58 | 41.55659 | -114.98980 | 300° | 33km/h | 20866m | 3.6m/s | -49.6°C | 0% | 0hPa | 0V | 00:00:00 | 00:00:00 | 00:00:00 | |
| KE7DJD | 2026-09-04 18:11:38 | 41.55616 | -114.98839 | 302° | 9km/h | 20760m | 4.2m/s | -49.2°C | 0% | 0hPa | 0V | 00:00:00 | 00:00:00 | 00:00:00 | |
| KE7DJD | 2026-09-04 18:11:17 | 41.55608 | -114.98716 | 314° | 13km/h | 20659m | 3.9m/s | -48.7°C | 0% | 0hPa | 0V | 00:00:00 | 00:00:00 | 00:00:00 | |
| KE7DJD | 2026-09-04 18:10:57 | 41.55597 | -114.98640 | 146° | 5km/h | 20547m | 5.4m/s | -49.2°C | 0% | 0hPa | 0V | 00:00:00 | 00:00:00 | 00:00:00 | |
| KE7DJD | 2026-09-04 18:10:36 | 41.55549 | -114.98646 | 38° | 11km/h | 20444m | 5.6m/s | -49.8°C | 0% | 0hPa | 0V | 00:00:00 | 00:00:00 | 00:00:00 | |
| KE7DJD | 2026-09-04 18:10:16 | 41.55478 | -114.98583 | 5° | 16km/h | 20340m | 4.0m/s | -49.8°C | 0% | 0hPa | 0V | 00:00:00 | 00:00:00 | 00:00:00 | |
| KE7DJD | 2026-09-04 18:09:55 | 41.55363 | -114.98492 | 335° | 20km/h | 20232m | 5.7m/s | -50.2°C | 0% | 0hPa | 0V | 00:00:00 | 00:00:00 | 00:00:00 | |
| KE7DJD | 2026-09-04 18:09:35 | 41.55264 | -114.98442 | 357° | 24km/h | 20124m | 4.8m/s | -50.8°C | 0% | 0hPa | 0V | 00:00:00 | 00:00:00 | 00:00:00 | |
| KE7DJD | 2026-09-04 18:09:14 | 41.55165 | -114.98363 | 328° | 18km/h | 20019m | 5.2m/s | -50.7°C | 0% | 0hPa | 0V | 00:00:00 | 00:00:00 | 00:00:00 | |
| KE7DJD | 2026-09-04 18:08:54 | 41.55067 | -114.98253 | 311° | 27km/h | 19914m | 5.6m/s | -50.4°C | 0% | 0hPa | 0V | 00:00:00 | 00:00:00 | 00:00:00 | |
| KE7DJD | 2026-09-04 18:08:33 | 41.54987 | -114.98129 | 285° | 18km/h | 19810m | 7.2m/s | -49.9°C | 0% | 0hPa | 0V | 00:00:00 | 00:00:00 | 00:00:00 | |
| KE7DJD | 2026-09-04 18:08:13 | 41.54944 | -114.98032 | 307° | 24km/h | 19702m | 5.3m/s | -49.3°C | 0% | 0hPa | 0V | 00:00:00 | 00:00:00 | 00:00:00 | |
| KE7DJD | 2026-09-04 18:07:51 | 41.54897 | -114.97926 | 306° | 22km/h | 19600m | 3.4m/s | -48.3°C | 0% | 0hPa | 0V | 00:00:00 | 00:00:00 | 00:00:00 | |
| KE7DJD | 2026-09-04 18:07:31 | 41.54856 | -114.97829 | 303° | 29km/h | 19507m | 5.0m/s | -48.2°C | 0% | 0hPa | 0V | 00:00:00 | 00:00:00 | 00:00:00 | |
| KE7DJD | 2026-09-04 18:07:11 | 41.54811 | -114.97798 | 7° | 9km/h | 19402m | 4.8m/s | -48.0°C | 0% | 0hPa | 0V | 00:00:00 | 00:00:00 | 00:00:00 | |
| KE7DJD | 2026-09-04 18:06:50 | 41.54777 | -114.97843 | 70° | 7km/h | 19307m | 5.2m/s | -48.0°C | 0% | 0hPa | 0V | 00:00:00 | 00:00:00 | 00:00:00 | |
| KE7DJD | 2026-09-04 18:06:30 | 41.54712 | -114.97928 | 27° | 31km/h | 19205m | 4.4m/s | -48.8°C | 0% | 0hPa | 0V | 00:00:00 | 00:00:00 | 00:00:00 | |
| KE7DJD | 2026-09-04 18:06:09 | 41.54608 | -114.97994 | 21° | 18km/h | 19112m | 5.3m/s | -50.6°C | 0% | 0hPa | 0V | 00:00:00 | 00:00:00 | 00:00:00 |